sensor_id;sensor_type;location;lat;lon;timestamp;P1;durP1;ratioP1;P2;durP2;ratioP2
22476;SDS011;65006;51.698;-0.292;2023-07-28T00:01:12;0.98;;;0.60;;
22476;SDS011;65006;51.698;-0.292;2023-07-28T00:03:38;0.68;;;0.60;;
22476;SDS011;65006;51.698;-0.292;2023-07-28T00:06:04;1.48;;;0.80;;
22476;SDS011;65006;51.698;-0.292;2023-07-28T00:08:30;0.90;;;0.50;;
22476;SDS011;65006;51.698;-0.292;2023-07-28T00:10:56;1.45;;;0.65;;
22476;SDS011;65006;51.698;-0.292;2023-07-28T00:13:22;0.60;;;0.57;;
22476;SDS011;65006;51.698;-0.292;2023-07-28T00:15:48;2.25;;;0.40;;
22476;SDS011;65006;51.698;-0.292;2023-07-28T00:18:14;0.57;;;0.40;;
22476;SDS011;65006;51.698;-0.292;2023-07-28T00:20:40;2.85;;;0.70;;
22476;SDS011;65006;51.698;-0.292;2023-07-28T00:23:06;2.20;;;1.30;;
22476;SDS011;65006;51.698;-0.292;2023-07-28T00:25:32;4.15;;;0.50;;
22476;SDS011;65006;51.698;-0.292;2023-07-28T00:27:58;3.00;;;0.70;;
22476;SDS011;65006;51.698;-0.292;2023-07-28T00:30:24;4.95;;;0.60;;
22476;SDS011;65006;51.698;-0.292;2023-07-28T00:32:51;0.47;;;0.47;;
22476;SDS011;65006;51.698;-0.292;2023-07-28T00:35:17;9.07;;;1.40;;
22476;SDS011;65006;51.698;-0.292;2023-07-28T00:37:43;2.38;;;0.30;;
22476;SDS011;65006;51.698;-0.292;2023-07-28T00:40:09;0.30;;;0.30;;
22476;SDS011;65006;51.698;-0.292;2023-07-28T00:42:36;1.65;;;0.50;;
22476;SDS011;65006;51.698;-0.292;2023-07-28T00:45:02;1.35;;;0.60;;
22476;SDS011;65006;51.698;-0.292;2023-07-28T00:47:28;0.75;;;0.50;;
22476;SDS011;65006;51.698;-0.292;2023-07-28T00:49:54;0.70;;;0.52;;
22476;SDS011;65006;51.698;-0.292;2023-07-28T00:52:20;2.35;;;0.50;;
22476;SDS011;65006;51.698;-0.292;2023-07-28T00:54:46;2.58;;;0.32;;
22476;SDS011;65006;51.698;-0.292;2023-07-28T00:57:12;3.42;;;0.70;;
22476;SDS011;65006;51.698;-0.292;2023-07-28T00:59:38;1.70;;;0.55;;
22476;SDS011;65006;51.698;-0.292;2023-07-28T01:02:04;0.50;;;0.40;;
22476;SDS011;65006;51.698;-0.292;2023-07-28T01:04:30;0.55;;;0.50;;
22476;SDS011;65006;51.698;-0.292;2023-07-28T01:07:02;2.47;;;0.57;;
22476;SDS011;65006;51.698;-0.292;2023-07-28T01:09:33;0.90;;;0.63;;
22476;SDS011;65006;51.698;-0.292;2023-07-28T01:12:05;1.15;;;0.50;;
22476;SDS011;65006;51.698;-0.292;2023-07-28T01:14:32;0.73;;;0.40;;
22476;SDS011;65006;51.698;-0.292;2023-07-28T01:16:58;0.50;;;0.38;;
22476;SDS011;65006;51.698;-0.292;2023-07-28T01:19:24;3.38;;;0.65;;
22476;SDS011;65006;51.698;-0.292;2023-07-28T01:21:54;0.50;;;0.40;;
22476;SDS011;65006;51.698;-0.292;2023-07-28T01:24:21;1.58;;;0.45;;
22476;SDS011;65006;51.698;-0.292;2023-07-28T01:26:49;0.30;;;0.30;;
22476;SDS011;65006;51.698;-0.292;2023-07-28T01:29:16;0.70;;;0.45;;
22476;SDS011;65006;51.698;-0.292;2023-07-28T01:31:45;0.52;;;0.50;;
22476;SDS011;65006;51.698;-0.292;2023-07-28T01:34:11;1.77;;;0.40;;
22476;SDS011;65006;51.698;-0.292;2023-07-28T01:36:38;0.70;;;0.25;;
22476;SDS011;65006;51.698;-0.292;2023-07-28T01:39:04;4.05;;;0.50;;
22476;SDS011;65006;51.698;-0.292;2023-07-28T01:41:30;0.40;;;0.28;;
22476;SDS011;65006;51.698;-0.292;2023-07-28T01:43:56;0.73;;;0.57;;
22476;SDS011;65006;51.698;-0.292;2023-07-28T01:46:22;1.52;;;0.50;;
22476;SDS011;65006;51.698;-0.292;2023-07-28T01:48:48;2.42;;;0.95;;
22476;SDS011;65006;51.698;-0.292;2023-07-28T01:51:14;4.78;;;0.75;;
22476;SDS011;65006;51.698;-0.292;2023-07-28T01:53:40;0.40;;;0.40;;
22476;SDS011;65006;51.698;-0.292;2023-07-28T01:56:06;1.85;;;0.50;;
22476;SDS011;65006;51.698;-0.292;2023-07-28T01:58:32;0.90;;;0.63;;
22476;SDS011;65006;51.698;-0.292;2023-07-28T02:00:58;1.10;;;0.50;;
22476;SDS011;65006;51.698;-0.292;2023-07-28T02:03:24;3.05;;;0.55;;
22476;SDS011;65006;51.698;-0.292;2023-07-28T02:05:50;3.00;;;0.50;;
22476;SDS011;65006;51.698;-0.292;2023-07-28T02:08:17;0.60;;;0.60;;
22476;SDS011;65006;51.698;-0.292;2023-07-28T02:10:44;1.40;;;0.50;;
22476;SDS011;65006;51.698;-0.292;2023-07-28T02:15:36;1.95;;;0.60;;
22476;SDS011;65006;51.698;-0.292;2023-07-28T02:18:02;4.35;;;0.68;;
22476;SDS011;65006;51.698;-0.292;2023-07-28T02:20:29;0.65;;;0.30;;
22476;SDS011;65006;51.698;-0.292;2023-07-28T02:22:55;0.77;;;0.38;;
22476;SDS011;65006;51.698;-0.292;2023-07-28T02:25:21;0.88;;;0.40;;
22476;SDS011;65006;51.698;-0.292;2023-07-28T02:27:47;1.65;;;0.57;;
22476;SDS011;65006;51.698;-0.292;2023-07-28T02:30:13;0.47;;;0.47;;
22476;SDS011;65006;51.698;-0.292;2023-07-28T02:32:39;1.83;;;0.60;;
22476;SDS011;65006;51.698;-0.292;2023-07-28T02:35:05;2.47;;;0.57;;
22476;SDS011;65006;51.698;-0.292;2023-07-28T02:37:31;2.47;;;1.02;;
22476;SDS011;65006;51.698;-0.292;2023-07-28T02:39:57;2.97;;;0.70;;
22476;SDS011;65006;51.698;-0.292;2023-07-28T02:42:23;0.68;;;0.60;;
22476;SDS011;65006;51.698;-0.292;2023-07-28T02:44:50;0.40;;;0.40;;
22476;SDS011;65006;51.698;-0.292;2023-07-28T02:47:16;3.72;;;0.55;;
22476;SDS011;65006;51.698;-0.292;2023-07-28T02:49:42;0.90;;;0.60;;
22476;SDS011;65006;51.698;-0.292;2023-07-28T02:52:08;3.58;;;0.57;;
22476;SDS011;65006;51.698;-0.292;2023-07-28T02:54:34;1.35;;;0.52;;
22476;SDS011;65006;51.698;-0.292;2023-07-28T02:57:00;0.73;;;0.40;;
22476;SDS011;65006;51.698;-0.292;2023-07-28T02:59:26;1.05;;;0.63;;
22476;SDS011;65006;51.698;-0.292;2023-07-28T03:01:52;0.88;;;0.70;;
22476;SDS011;65006;51.698;-0.292;2023-07-28T03:04:18;0.85;;;0.60;;
22476;SDS011;65006;51.698;-0.292;2023-07-28T03:06:47;2.58;;;0.50;;
22476;SDS011;65006;51.698;-0.292;2023-07-28T03:09:14;0.95;;;0.50;;
22476;SDS011;65006;51.698;-0.292;2023-07-28T03:11:42;0.85;;;0.50;;
22476;SDS011;65006;51.698;-0.292;2023-07-28T03:14:09;1.90;;;0.60;;
22476;SDS011;65006;51.698;-0.292;2023-07-28T03:16:35;5.03;;;0.50;;
22476;SDS011;65006;51.698;-0.292;2023-07-28T03:19:01;0.30;;;0.30;;
22476;SDS011;65006;51.698;-0.292;2023-07-28T03:21:29;1.50;;;0.50;;
22476;SDS011;65006;51.698;-0.292;2023-07-28T03:23:56;1.50;;;0.55;;
22476;SDS011;65006;51.698;-0.292;2023-07-28T03:26:21;0.70;;;0.70;;
22476;SDS011;65006;51.698;-0.292;2023-07-28T03:28:47;1.55;;;0.70;;
22476;SDS011;65006;51.698;-0.292;2023-07-28T03:31:14;1.42;;;0.63;;
22476;SDS011;65006;51.698;-0.292;2023-07-28T03:33:40;2.15;;;0.82;;
22476;SDS011;65006;51.698;-0.292;2023-07-28T03:36:06;1.23;;;0.52;;
22476;SDS011;65006;51.698;-0.292;2023-07-28T03:38:31;2.60;;;0.75;;
22476;SDS011;65006;51.698;-0.292;2023-07-28T03:40:57;1.23;;;0.60;;
22476;SDS011;65006;51.698;-0.292;2023-07-28T03:43:23;0.65;;;0.60;;
22476;SDS011;65006;51.698;-0.292;2023-07-28T03:45:49;0.70;;;0.57;;
22476;SDS011;65006;51.698;-0.292;2023-07-28T03:48:15;2.05;;;0.77;;
22476;SDS011;65006;51.698;-0.292;2023-07-28T03:50:42;0.82;;;0.40;;
22476;SDS011;65006;51.698;-0.292;2023-07-28T03:53:08;0.88;;;0.40;;
22476;SDS011;65006;51.698;-0.292;2023-07-28T03:55:34;2.35;;;0.40;;
22476;SDS011;65006;51.698;-0.292;2023-07-28T03:58:00;1.45;;;0.65;;
22476;SDS011;65006;51.698;-0.292;2023-07-28T04:00:26;0.80;;;0.60;;
22476;SDS011;65006;51.698;-0.292;2023-07-28T04:02:52;1.60;;;0.30;;
22476;SDS011;65006;51.698;-0.292;2023-07-28T04:05:18;2.55;;;0.20;;
22476;SDS011;65006;51.698;-0.292;2023-07-28T04:07:44;1.70;;;0.52;;
22476;SDS011;65006;51.698;-0.292;2023-07-28T04:10:10;0.63;;;0.40;;
22476;SDS011;65006;51.698;-0.292;2023-07-28T04:12:36;0.65;;;0.40;;
22476;SDS011;65006;51.698;-0.292;2023-07-28T04:15:02;1.30;;;0.47;;
22476;SDS011;65006;51.698;-0.292;2023-07-28T04:17:28;4.68;;;0.30;;
22476;SDS011;65006;51.698;-0.292;2023-07-28T04:19:54;2.58;;;0.40;;
22476;SDS011;65006;51.698;-0.292;2023-07-28T04:22:20;0.60;;;0.20;;
22476;SDS011;65006;51.698;-0.292;2023-07-28T04:24:47;0.20;;;0.20;;
22476;SDS011;65006;51.698;-0.292;2023-07-28T04:27:14;2.15;;;0.43;;
22476;SDS011;65006;51.698;-0.292;2023-07-28T04:29:40;0.95;;;0.30;;
22476;SDS011;65006;51.698;-0.292;2023-07-28T04:32:06;0.17;;;0.17;;
22476;SDS011;65006;51.698;-0.292;2023-07-28T04:34:33;2.72;;;0.40;;
22476;SDS011;65006;51.698;-0.292;2023-07-28T04:36:59;0.35;;;0.15;;
22476;SDS011;65006;51.698;-0.292;2023-07-28T04:39:25;4.65;;;0.28;;
22476;SDS011;65006;51.698;-0.292;2023-07-28T04:41:51;0.20;;;0.20;;
22476;SDS011;65006;51.698;-0.292;2023-07-28T04:44:17;0.38;;;0.10;;
22476;SDS011;65006;51.698;-0.292;2023-07-28T04:46:44;1.48;;;0.20;;
22476;SDS011;65006;51.698;-0.292;2023-07-28T04:49:12;1.25;;;0.13;;
22476;SDS011;65006;51.698;-0.292;2023-07-28T04:51:38;0.10;;;0.10;;
22476;SDS011;65006;51.698;-0.292;2023-07-28T04:54:04;0.22;;;0.20;;
22476;SDS011;65006;51.698;-0.292;2023-07-28T04:56:30;3.72;;;0.20;;
22476;SDS011;65006;51.698;-0.292;2023-07-28T04:58:56;2.28;;;0.20;;
22476;SDS011;65006;51.698;-0.292;2023-07-28T05:01:24;0.22;;;0.20;;
22476;SDS011;65006;51.698;-0.292;2023-07-28T05:03:50;1.30;;;0.20;;
22476;SDS011;65006;51.698;-0.292;2023-07-28T05:06:16;0.20;;;0.20;;
22476;SDS011;65006;51.698;-0.292;2023-07-28T05:11:08;0.10;;;0.10;;
22476;SDS011;65006;51.698;-0.292;2023-07-28T05:13:34;0.10;;;0.10;;
22476;SDS011;65006;51.698;-0.292;2023-07-28T05:16:00;0.22;;;0.15;;
22476;SDS011;65006;51.698;-0.292;2023-07-28T05:18:26;0.00;;;0.00;;
22476;SDS011;65006;51.698;-0.292;2023-07-28T05:20:52;0.30;;;0.15;;
22476;SDS011;65006;51.698;-0.292;2023-07-28T05:23:18;0.32;;;0.20;;
22476;SDS011;65006;51.698;-0.292;2023-07-28T05:25:44;0.30;;;0.30;;
22476;SDS011;65006;51.698;-0.292;2023-07-28T05:28:10;2.33;;;0.20;;
22476;SDS011;65006;51.698;-0.292;2023-07-28T05:30:36;0.47;;;0.22;;
22476;SDS011;65006;51.698;-0.292;2023-07-28T05:33:02;0.10;;;0.10;;
22476;SDS011;65006;51.698;-0.292;2023-07-28T05:35:28;0.10;;;0.10;;
22476;SDS011;65006;51.698;-0.292;2023-07-28T05:37:54;0.20;;;0.10;;
22476;SDS011;65006;51.698;-0.292;2023-07-28T05:40:20;1.33;;;0.10;;
22476;SDS011;65006;51.698;-0.292;2023-07-28T05:42:46;0.10;;;0.08;;
22476;SDS011;65006;51.698;-0.292;2023-07-28T05:45:12;1.90;;;0.05;;
22476;SDS011;65006;51.698;-0.292;2023-07-28T05:47:38;0.65;;;0.10;;
22476;SDS011;65006;51.698;-0.292;2023-07-28T05:50:04;1.00;;;0.10;;
22476;SDS011;65006;51.698;-0.292;2023-07-28T05:52:30;1.35;;;0.15;;
22476;SDS011;65006;51.698;-0.292;2023-07-28T05:54:56;4.93;;;0.20;;
22476;SDS011;65006;51.698;-0.292;2023-07-28T05:57:22;0.10;;;0.10;;
22476;SDS011;65006;51.698;-0.292;2023-07-28T05:59:48;0.35;;;0.22;;
22476;SDS011;65006;51.698;-0.292;2023-07-28T06:02:14;0.45;;;0.25;;
22476;SDS011;65006;51.698;-0.292;2023-07-28T06:04:40;0.45;;;0.20;;
22476;SDS011;65006;51.698;-0.292;2023-07-28T06:07:07;0.17;;;0.13;;
22476;SDS011;65006;51.698;-0.292;2023-07-28T06:09:33;1.85;;;0.20;;
22476;SDS011;65006;51.698;-0.292;2023-07-28T06:11:59;0.52;;;0.30;;
22476;SDS011;65006;51.698;-0.292;2023-07-28T06:14:25;0.40;;;0.35;;
22476;SDS011;65006;51.698;-0.292;2023-07-28T06:16:51;0.50;;;0.30;;
22476;SDS011;65006;51.698;-0.292;2023-07-28T06:19:17;0.40;;;0.28;;
22476;SDS011;65006;51.698;-0.292;2023-07-28T06:21:49;0.80;;;0.40;;
22476;SDS011;65006;51.698;-0.292;2023-07-28T06:24:15;0.90;;;0.50;;
22476;SDS011;65006;51.698;-0.292;2023-07-28T06:26:41;0.80;;;0.60;;
22476;SDS011;65006;51.698;-0.292;2023-07-28T06:29:07;3.45;;;0.55;;
22476;SDS011;65006;51.698;-0.292;2023-07-28T06:31:33;0.45;;;0.40;;
22476;SDS011;65006;51.698;-0.292;2023-07-28T06:33:59;0.55;;;0.40;;
22476;SDS011;65006;51.698;-0.292;2023-07-28T06:36:25;0.30;;;0.30;;
22476;SDS011;65006;51.698;-0.292;2023-07-28T06:38:52;0.65;;;0.52;;
22476;SDS011;65006;51.698;-0.292;2023-07-28T06:41:20;1.48;;;0.30;;
22476;SDS011;65006;51.698;-0.292;2023-07-28T06:43:46;1.75;;;0.30;;
22476;SDS011;65006;51.698;-0.292;2023-07-28T06:46:13;0.98;;;0.25;;
22476;SDS011;65006;51.698;-0.292;2023-07-28T06:48:39;0.25;;;0.10;;
22476;SDS011;65006;51.698;-0.292;2023-07-28T06:51:06;0.73;;;0.30;;
22476;SDS011;65006;51.698;-0.292;2023-07-28T06:53:33;0.40;;;0.20;;
22476;SDS011;65006;51.698;-0.292;2023-07-28T06:55:59;0.20;;;0.20;;
22476;SDS011;65006;51.698;-0.292;2023-07-28T06:58:26;0.35;;;0.20;;
22476;SDS011;65006;51.698;-0.292;2023-07-28T07:00:52;0.00;;;0.00;;
22476;SDS011;65006;51.698;-0.292;2023-07-28T07:03:20;2.53;;;0.20;;
22476;SDS011;65006;51.698;-0.292;2023-07-28T07:05:48;2.50;;;0.17;;
22476;SDS011;65006;51.698;-0.292;2023-07-28T07:08:14;0.00;;;0.00;;
22476;SDS011;65006;51.698;-0.292;2023-07-28T07:10:39;0.00;;;0.00;;
22476;SDS011;65006;51.698;-0.292;2023-07-28T07:13:05;0.03;;;0.03;;
22476;SDS011;65006;51.698;-0.292;2023-07-28T07:15:33;0.17;;;0.03;;
22476;SDS011;65006;51.698;-0.292;2023-07-28T07:18:00;0.32;;;0.10;;
22476;SDS011;65006;51.698;-0.292;2023-07-28T07:20:26;0.00;;;0.00;;
22476;SDS011;65006;51.698;-0.292;2023-07-28T07:22:52;0.10;;;0.10;;
22476;SDS011;65006;51.698;-0.292;2023-07-28T07:25:18;0.17;;;0.08;;
22476;SDS011;65006;51.698;-0.292;2023-07-28T07:27:44;0.20;;;0.10;;
22476;SDS011;65006;51.698;-0.292;2023-07-28T07:30:10;0.70;;;0.10;;
22476;SDS011;65006;51.698;-0.292;2023-07-28T07:32:36;1.55;;;0.00;;
22476;SDS011;65006;51.698;-0.292;2023-07-28T07:35:02;0.10;;;0.00;;
22476;SDS011;65006;51.698;-0.292;2023-07-28T07:37:29;0.40;;;0.03;;
22476;SDS011;65006;51.698;-0.292;2023-07-28T07:39:57;0.00;;;0.00;;
22476;SDS011;65006;51.698;-0.292;2023-07-28T07:42:25;0.00;;;0.00;;
22476;SDS011;65006;51.698;-0.292;2023-07-28T07:44:51;0.17;;;0.10;;
22476;SDS011;65006;51.698;-0.292;2023-07-28T07:47:17;0.10;;;0.00;;
22476;SDS011;65006;51.698;-0.292;2023-07-28T07:49:43;0.15;;;0.15;;
22476;SDS011;65006;51.698;-0.292;2023-07-28T07:52:09;0.10;;;0.10;;
22476;SDS011;65006;51.698;-0.292;2023-07-28T07:54:35;0.30;;;0.10;;
22476;SDS011;65006;51.698;-0.292;2023-07-28T07:57:04;0.25;;;0.10;;
22476;SDS011;65006;51.698;-0.292;2023-07-28T07:59:30;0.43;;;0.00;;
22476;SDS011;65006;51.698;-0.292;2023-07-28T08:01:58;0.03;;;0.00;;
22476;SDS011;65006;51.698;-0.292;2023-07-28T08:04:25;0.75;;;0.10;;
22476;SDS011;65006;51.698;-0.292;2023-07-28T08:06:53;0.05;;;0.05;;
22476;SDS011;65006;51.698;-0.292;2023-07-28T08:09:19;0.10;;;0.10;;
22476;SDS011;65006;51.698;-0.292;2023-07-28T08:11:45;0.93;;;0.15;;
22476;SDS011;65006;51.698;-0.292;2023-07-28T08:14:11;0.30;;;0.20;;
22476;SDS011;65006;51.698;-0.292;2023-07-28T08:16:37;0.30;;;0.10;;
22476;SDS011;65006;51.698;-0.292;2023-07-28T08:19:03;0.50;;;0.10;;
22476;SDS011;65006;51.698;-0.292;2023-07-28T08:21:29;0.00;;;0.00;;
22476;SDS011;65006;51.698;-0.292;2023-07-28T08:24:01;1.00;;;0.10;;
22476;SDS011;65006;51.698;-0.292;2023-07-28T08:26:27;0.10;;;0.10;;
22476;SDS011;65006;51.698;-0.292;2023-07-28T08:28:53;0.10;;;0.08;;
22476;SDS011;65006;51.698;-0.292;2023-07-28T08:31:19;0.80;;;0.03;;
22476;SDS011;65006;51.698;-0.292;2023-07-28T08:33:48;0.00;;;0.00;;
22476;SDS011;65006;51.698;-0.292;2023-07-28T08:36:14;0.13;;;0.00;;
22476;SDS011;65006;51.698;-0.292;2023-07-28T08:38:40;0.30;;;0.08;;
22476;SDS011;65006;51.698;-0.292;2023-07-28T08:41:06;1.60;;;0.10;;
22476;SDS011;65006;51.698;-0.292;2023-07-28T08:43:32;0.05;;;0.05;;
22476;SDS011;65006;51.698;-0.292;2023-07-28T08:45:58;1.95;;;0.10;;
22476;SDS011;65006;51.698;-0.292;2023-07-28T08:48:24;0.03;;;0.00;;
22476;SDS011;65006;51.698;-0.292;2023-07-28T08:50:50;0.10;;;0.10;;
22476;SDS011;65006;51.698;-0.292;2023-07-28T08:53:17;0.15;;;0.00;;
22476;SDS011;65006;51.698;-0.292;2023-07-28T08:55:43;0.20;;;0.00;;
22476;SDS011;65006;51.698;-0.292;2023-07-28T08:58:15;0.00;;;0.00;;
22476;SDS011;65006;51.698;-0.292;2023-07-28T09:00:41;0.57;;;0.10;;
22476;SDS011;65006;51.698;-0.292;2023-07-28T09:03:09;0.00;;;0.00;;
22476;SDS011;65006;51.698;-0.292;2023-07-28T09:05:35;0.20;;;0.10;;
22476;SDS011;65006;51.698;-0.292;2023-07-28T09:08:01;0.10;;;0.10;;
22476;SDS011;65006;51.698;-0.292;2023-07-28T09:10:39;0.10;;;0.10;;
22476;SDS011;65006;51.698;-0.292;2023-07-28T09:13:08;1.65;;;0.10;;
22476;SDS011;65006;51.698;-0.292;2023-07-28T09:15:36;0.10;;;0.10;;
22476;SDS011;65006;51.698;-0.292;2023-07-28T09:18:02;0.00;;;0.00;;
22476;SDS011;65006;51.698;-0.292;2023-07-28T09:20:33;3.15;;;0.10;;
22476;SDS011;65006;51.698;-0.292;2023-07-28T09:23:00;0.98;;;0.13;;
22476;SDS011;65006;51.698;-0.292;2023-07-28T09:25:27;2.80;;;0.65;;
22476;SDS011;65006;51.698;-0.292;2023-07-28T09:27:54;0.40;;;0.20;;
22476;SDS011;65006;51.698;-0.292;2023-07-28T09:30:21;0.40;;;0.20;;
22476;SDS011;65006;51.698;-0.292;2023-07-28T09:35:13;0.30;;;0.28;;
22476;SDS011;65006;51.698;-0.292;2023-07-28T09:37:40;0.10;;;0.10;;
22476;SDS011;65006;51.698;-0.292;2023-07-28T09:40:10;0.10;;;0.10;;
22476;SDS011;65006;51.698;-0.292;2023-07-28T09:42:37;0.63;;;0.20;;
22476;SDS011;65006;51.698;-0.292;2023-07-28T09:45:04;0.20;;;0.15;;
22476;SDS011;65006;51.698;-0.292;2023-07-28T09:47:30;0.10;;;0.10;;
22476;SDS011;65006;51.698;-0.292;2023-07-28T09:49:59;3.63;;;0.10;;
22476;SDS011;65006;51.698;-0.292;2023-07-28T09:52:27;1.70;;;0.20;;
22476;SDS011;65006;51.698;-0.292;2023-07-28T09:54:54;2.00;;;0.28;;
22476;SDS011;65006;51.698;-0.292;2023-07-28T09:57:24;0.35;;;0.17;;
22476;SDS011;65006;51.698;-0.292;2023-07-28T09:59:51;1.02;;;0.30;;
22476;SDS011;65006;51.698;-0.292;2023-07-28T10:02:20;0.75;;;0.30;;
22476;SDS011;65006;51.698;-0.292;2023-07-28T10:04:46;0.63;;;0.30;;
22476;SDS011;65006;51.698;-0.292;2023-07-28T10:07:12;0.73;;;0.28;;
22476;SDS011;65006;51.698;-0.292;2023-07-28T10:09:38;0.32;;;0.20;;
22476;SDS011;65006;51.698;-0.292;2023-07-28T10:12:05;0.10;;;0.10;;
22476;SDS011;65006;51.698;-0.292;2023-07-28T10:14:34;1.55;;;0.10;;
22476;SDS011;65006;51.698;-0.292;2023-07-28T10:17:02;0.10;;;0.10;;
22476;SDS011;65006;51.698;-0.292;2023-07-28T10:19:29;0.00;;;0.00;;
22476;SDS011;65006;51.698;-0.292;2023-07-28T10:21:58;0.38;;;0.17;;
22476;SDS011;65006;51.698;-0.292;2023-07-28T10:27:10;2.65;;;0.20;;
22476;SDS011;65006;51.698;-0.292;2023-07-28T10:29:36;5.05;;;0.57;;
22476;SDS011;65006;51.698;-0.292;2023-07-28T10:32:03;1.58;;;0.25;;
22476;SDS011;65006;51.698;-0.292;2023-07-28T10:34:29;0.20;;;0.15;;
22476;SDS011;65006;51.698;-0.292;2023-07-28T10:36:56;4.03;;;0.43;;
22476;SDS011;65006;51.698;-0.292;2023-07-28T10:39:23;0.20;;;0.20;;
22476;SDS011;65006;51.698;-0.292;2023-07-28T10:42:03;1.75;;;0.30;;
22476;SDS011;65006;51.698;-0.292;2023-07-28T10:44:29;0.13;;;0.10;;
22476;SDS011;65006;51.698;-0.292;2023-07-28T10:46:55;0.20;;;0.20;;
22476;SDS011;65006;51.698;-0.292;2023-07-28T10:51:48;0.75;;;0.30;;
22476;SDS011;65006;51.698;-0.292;2023-07-28T10:54:14;0.55;;;0.20;;
22476;SDS011;65006;51.698;-0.292;2023-07-28T10:56:43;0.10;;;0.10;;
22476;SDS011;65006;51.698;-0.292;2023-07-28T10:59:10;0.38;;;0.20;;
22476;SDS011;65006;51.698;-0.292;2023-07-28T11:01:36;0.20;;;0.10;;
22476;SDS011;65006;51.698;-0.292;2023-07-28T11:06:42;1.00;;;0.20;;
22476;SDS011;65006;51.698;-0.292;2023-07-28T11:09:08;0.45;;;0.20;;
22476;SDS011;65006;51.698;-0.292;2023-07-28T11:11:37;0.10;;;0.05;;
22476;SDS011;65006;51.698;-0.292;2023-07-28T11:14:07;0.28;;;0.10;;
22476;SDS011;65006;51.698;-0.292;2023-07-28T11:16:34;1.83;;;0.20;;
22476;SDS011;65006;51.698;-0.292;2023-07-28T11:19:06;0.10;;;0.00;;
22476;SDS011;65006;51.698;-0.292;2023-07-28T11:21:40;0.10;;;0.00;;
22476;SDS011;65006;51.698;-0.292;2023-07-28T11:24:07;0.15;;;0.10;;
22476;SDS011;65006;51.698;-0.292;2023-07-28T11:26:34;0.30;;;0.13;;
22476;SDS011;65006;51.698;-0.292;2023-07-28T11:29:01;0.20;;;0.20;;
22476;SDS011;65006;51.698;-0.292;2023-07-28T11:31:27;1.00;;;0.20;;
22476;SDS011;65006;51.698;-0.292;2023-07-28T11:33:53;3.65;;;0.22;;
22476;SDS011;65006;51.698;-0.292;2023-07-28T11:36:28;0.77;;;0.32;;
22476;SDS011;65006;51.698;-0.292;2023-07-28T11:38:55;1.42;;;0.15;;
22476;SDS011;65006;51.698;-0.292;2023-07-28T11:41:23;0.57;;;0.10;;
22476;SDS011;65006;51.698;-0.292;2023-07-28T11:43:49;0.43;;;0.22;;
22476;SDS011;65006;51.698;-0.292;2023-07-28T11:48:42;1.38;;;0.45;;
22476;SDS011;65006;51.698;-0.292;2023-07-28T11:51:08;0.40;;;0.30;;
22476;SDS011;65006;51.698;-0.292;2023-07-28T11:53:38;0.43;;;0.43;;
22476;SDS011;65006;51.698;-0.292;2023-07-28T11:56:05;0.52;;;0.38;;
22476;SDS011;65006;51.698;-0.292;2023-07-28T11:58:31;4.68;;;2.30;;
22476;SDS011;65006;51.698;-0.292;2023-07-28T12:00:57;21.08;;;9.63;;
22476;SDS011;65006;51.698;-0.292;2023-07-28T12:03:29;14.82;;;6.95;;
22476;SDS011;65006;51.698;-0.292;2023-07-28T12:06:04;9.18;;;4.68;;
22476;SDS011;65006;51.698;-0.292;2023-07-28T12:08:38;8.00;;;3.13;;
22476;SDS011;65006;51.698;-0.292;2023-07-28T12:11:04;5.22;;;3.00;;
22476;SDS011;65006;51.698;-0.292;2023-07-28T12:13:31;2.50;;;1.95;;
22476;SDS011;65006;51.698;-0.292;2023-07-28T12:15:57;2.75;;;1.00;;
22476;SDS011;65006;51.698;-0.292;2023-07-28T12:18:27;4.78;;;1.73;;
22476;SDS011;65006;51.698;-0.292;2023-07-28T12:20:54;2.53;;;1.08;;
22476;SDS011;65006;51.698;-0.292;2023-07-28T12:23:21;1.08;;;0.40;;
22476;SDS011;65006;51.698;-0.292;2023-07-28T12:25:48;0.60;;;0.30;;
22476;SDS011;65006;51.698;-0.292;2023-07-28T12:28:15;1.30;;;0.50;;
22476;SDS011;65006;51.698;-0.292;2023-07-28T12:30:41;0.75;;;0.30;;
22476;SDS011;65006;51.698;-0.292;2023-07-28T12:33:08;3.70;;;0.40;;
22476;SDS011;65006;51.698;-0.292;2023-07-28T12:35:35;1.00;;;0.40;;
22476;SDS011;65006;51.698;-0.292;2023-07-28T12:38:01;0.63;;;0.30;;
22476;SDS011;65006;51.698;-0.292;2023-07-28T12:40:31;1.85;;;0.43;;
22476;SDS011;65006;51.698;-0.292;2023-07-28T12:42:58;0.32;;;0.20;;
22476;SDS011;65006;51.698;-0.292;2023-07-28T12:47:53;0.75;;;0.30;;
22476;SDS011;65006;51.698;-0.292;2023-07-28T12:50:20;1.60;;;0.25;;
22476;SDS011;65006;51.698;-0.292;2023-07-28T12:55:12;0.55;;;0.20;;
22476;SDS011;65006;51.698;-0.292;2023-07-28T12:57:38;1.33;;;0.43;;
22476;SDS011;65006;51.698;-0.292;2023-07-28T13:00:04;3.20;;;0.60;;
22476;SDS011;65006;51.698;-0.292;2023-07-28T13:02:38;0.32;;;0.30;;
22476;SDS011;65006;51.698;-0.292;2023-07-28T13:07:30;3.22;;;0.65;;
22476;SDS011;65006;51.698;-0.292;2023-07-28T13:09:56;0.50;;;0.30;;
22476;SDS011;65006;51.698;-0.292;2023-07-28T13:12:22;1.67;;;0.30;;
22476;SDS011;65006;51.698;-0.292;2023-07-28T13:14:47;0.85;;;0.63;;
22476;SDS011;65006;51.698;-0.292;2023-07-28T13:17:13;5.38;;;0.40;;
22476;SDS011;65006;51.698;-0.292;2023-07-28T13:19:41;0.47;;;0.32;;
22476;SDS011;65006;51.698;-0.292;2023-07-28T13:22:07;0.70;;;0.28;;
22476;SDS011;65006;51.698;-0.292;2023-07-28T13:24:33;1.10;;;0.55;;
22476;SDS011;65006;51.698;-0.292;2023-07-28T13:26:59;0.80;;;0.40;;
22476;SDS011;65006;51.698;-0.292;2023-07-28T13:29:25;0.98;;;0.57;;
22476;SDS011;65006;51.698;-0.292;2023-07-28T13:31:56;1.92;;;0.50;;
22476;SDS011;65006;51.698;-0.292;2023-07-28T13:34:23;0.90;;;0.60;;
22476;SDS011;65006;51.698;-0.292;2023-07-28T13:36:50;0.50;;;0.30;;
22476;SDS011;65006;51.698;-0.292;2023-07-28T13:39:16;1.77;;;0.88;;
22476;SDS011;65006;51.698;-0.292;2023-07-28T13:41:42;4.18;;;1.65;;
22476;SDS011;65006;51.698;-0.292;2023-07-28T13:44:08;2.40;;;1.15;;
22476;SDS011;65006;51.698;-0.292;2023-07-28T13:46:34;0.95;;;0.68;;
22476;SDS011;65006;51.698;-0.292;2023-07-28T13:49:00;1.35;;;0.80;;
22476;SDS011;65006;51.698;-0.292;2023-07-28T13:51:26;1.15;;;0.50;;
22476;SDS011;65006;51.698;-0.292;2023-07-28T13:53:52;0.90;;;0.50;;
22476;SDS011;65006;51.698;-0.292;2023-07-28T13:56:18;0.93;;;0.50;;
22476;SDS011;65006;51.698;-0.292;2023-07-28T13:58:44;0.82;;;0.32;;
22476;SDS011;65006;51.698;-0.292;2023-07-28T14:01:10;0.47;;;0.40;;
22476;SDS011;65006;51.698;-0.292;2023-07-28T14:03:36;2.95;;;0.40;;
22476;SDS011;65006;51.698;-0.292;2023-07-28T14:06:02;0.60;;;0.28;;
22476;SDS011;65006;51.698;-0.292;2023-07-28T14:08:28;0.45;;;0.25;;
22476;SDS011;65006;51.698;-0.292;2023-07-28T14:10:54;0.73;;;0.30;;
22476;SDS011;65006;51.698;-0.292;2023-07-28T14:13:20;0.60;;;0.43;;
22476;SDS011;65006;51.698;-0.292;2023-07-28T14:15:47;0.65;;;0.45;;
22476;SDS011;65006;51.698;-0.292;2023-07-28T14:18:13;1.45;;;0.50;;
22476;SDS011;65006;51.698;-0.292;2023-07-28T14:20:39;0.77;;;0.38;;
22476;SDS011;65006;51.698;-0.292;2023-07-28T14:23:25;0.70;;;0.40;;
22476;SDS011;65006;51.698;-0.292;2023-07-28T14:25:51;0.77;;;0.50;;
22476;SDS011;65006;51.698;-0.292;2023-07-28T14:28:18;0.60;;;0.47;;
22476;SDS011;65006;51.698;-0.292;2023-07-28T14:30:44;3.30;;;0.50;;
22476;SDS011;65006;51.698;-0.292;2023-07-28T14:33:14;0.95;;;0.50;;
22476;SDS011;65006;51.698;-0.292;2023-07-28T14:35:41;0.50;;;0.43;;
22476;SDS011;65006;51.698;-0.292;2023-07-28T14:38:07;3.65;;;0.40;;
22476;SDS011;65006;51.698;-0.292;2023-07-28T14:40:36;0.82;;;0.50;;
22476;SDS011;65006;51.698;-0.292;2023-07-28T14:43:03;1.00;;;0.52;;
22476;SDS011;65006;51.698;-0.292;2023-07-28T14:45:30;7.50;;;0.60;;
22476;SDS011;65006;51.698;-0.292;2023-07-28T14:47:56;0.73;;;0.43;;
22476;SDS011;65006;51.698;-0.292;2023-07-28T14:50:22;1.05;;;0.60;;
22476;SDS011;65006;51.698;-0.292;2023-07-28T14:52:48;0.82;;;0.50;;
22476;SDS011;65006;51.698;-0.292;2023-07-28T14:55:14;0.98;;;0.45;;